createdAt,value
2024-03-02T00:00:34.902Z,99608.75
2024-03-02T00:01:26.520Z,99604.34
2024-03-02T00:02:18.084Z,99605.13
2024-03-02T00:03:12.168Z,99609.34
2024-03-02T00:04:05.552Z,99605.94
2024-03-02T00:04:57.124Z,99606.03
2024-03-02T00:05:54.751Z,99609.53
2024-03-02T00:06:46.338Z,99603.47
2024-03-02T00:07:37.763Z,99594.72
2024-03-02T00:08:30.683Z,99597.47
2024-03-02T00:09:22.249Z,99602.63
2024-03-02T00:10:20.491Z,99606.03
2024-03-02T00:11:15.064Z,99601.03
2024-03-02T00:12:06.916Z,99601.94
2024-03-02T00:12:59.230Z,99593.19
2024-03-02T00:13:53.786Z,99594.03
2024-03-02T00:14:45.469Z,99593.97
2024-03-02T00:15:43.752Z,99591.47
2024-03-02T00:16:35.294Z,99595.75
2024-03-02T00:17:27.121Z,99596.63
2024-03-02T00:18:21.840Z,99600.13
2024-03-02T00:19:13.740Z,99601.03
2024-03-02T00:20:11.212Z,99599.44
2024-03-02T00:21:04.522Z,99595.91
2024-03-02T00:21:56.124Z,99596.66
2024-03-02T00:22:50.661Z,99596.66
2024-03-02T00:23:43.258Z,99601.88
2024-03-02T00:24:37.841Z,99599.34
2024-03-02T00:25:39.237Z,99602.03
2024-03-02T00:26:30.848Z,99597.81
2024-03-02T00:27:22.587Z,99591.09
2024-03-02T00:28:27.574Z,99590.19
2024-03-02T00:29:21.046Z,99591.00
2024-03-02T00:30:48.707Z,99591.84
2024-03-02T00:31:40.955Z,99596.22
2024-03-02T00:32:34.466Z,99592.78
2024-03-02T00:33:32.712Z,99591.94
2024-03-02T00:34:24.638Z,99596.38
2024-03-02T00:35:16.120Z,99591.19
2024-03-02T00:36:09.064Z,99585.34
2024-03-02T00:37:01.442Z,99573.22
2024-03-02T00:37:52.976Z,99574.88
2024-03-02T00:38:52.358Z,99577.53
2024-03-02T00:39:44.184Z,99570.66
2024-03-02T00:40:35.613Z,99575.84
2024-03-02T00:41:33.522Z,99581.03
2024-03-02T00:42:25.629Z,99577.75
2024-03-02T00:43:45.969Z,99574.28
2024-03-02T00:44:39.065Z,99578.63
2024-03-02T00:45:31.037Z,99563.97
2024-03-02T00:46:22.714Z,99565.75
2024-03-02T00:47:14.297Z,99574.44
2024-03-02T00:48:06.484Z,99583.03
2024-03-02T00:49:01.155Z,99574.38
2024-03-02T00:49:52.806Z,99567.47
2024-03-02T00:50:44.211Z,99567.63
2024-03-02T00:51:36.503Z,99572.84
2024-03-02T00:52:29.499Z,99572.84
2024-03-02T00:53:25.677Z,99572.09
2024-03-02T00:54:26.676Z,99574.72
2024-03-02T00:55:20.093Z,99572.16
2024-03-02T00:56:12.952Z,99573.06
2024-03-02T00:57:05.590Z,99567.84
2024-03-02T00:57:57.158Z,99575.66
2024-03-02T00:58:48.609Z,99571.22
2024-03-02T00:59:40.784Z,99567.78
2024-03-02T01:00:32.677Z,99578.19
2024-03-02T01:01:24.501Z,99572.97
2024-03-02T01:02:16.700Z,99572.16
2024-03-02T01:03:08.777Z,99564.34
2024-03-02T01:04:00.297Z,99576.44
2024-03-02T01:04:51.796Z,99572.94
2024-03-02T01:05:44.293Z,99577.25
2024-03-02T01:06:39.193Z,99584.19
2024-03-02T01:07:30.670Z,99578.19
2024-03-02T01:08:22.135Z,99579.84
2024-03-02T01:09:13.979Z,99577.25
2024-03-02T01:10:05.996Z,99576.50
2024-03-02T01:10:57.543Z,99577.31
2024-03-02T01:11:49.003Z,99573.81
2024-03-02T01:12:40.528Z,99583.28
2024-03-02T01:13:32.870Z,99572.03
2024-03-02T01:14:24.321Z,99574.53
2024-03-02T01:15:15.859Z,99566.66
2024-03-02T01:16:07.715Z,99578.66
2024-03-02T01:16:59.208Z,99568.31
2024-03-02T01:17:53.241Z,99569.19
2024-03-02T01:18:46.717Z,99566.66
2024-03-02T01:19:39.023Z,99567.47
2024-03-02T01:20:31.355Z,99566.53
2024-03-02T01:21:22.907Z,99570.75
2024-03-02T01:22:14.381Z,99568.06
2024-03-02T01:23:06.660Z,99559.28
2024-03-02T01:23:58.028Z,99560.31
2024-03-02T01:24:50.453Z,99568.22
2024-03-02T01:25:42.005Z,99563.78
2024-03-02T01:26:34.237Z,99562.00
2024-03-02T01:27:25.697Z,99561.13
2024-03-02T01:28:17.387Z,99560.25
2024-03-02T01:29:09.012Z,99561.00
2024-03-02T01:30:00.867Z,99566.16
2024-03-02T01:30:52.439Z,99565.22
2024-03-02T01:31:44.110Z,99561.78
2024-03-02T01:32:35.556Z,99562.69
2024-03-02T01:33:27.373Z,99557.50
2024-03-02T01:34:18.823Z,99561.88
2024-03-02T01:35:11.148Z,99560.97
2024-03-02T01:36:02.929Z,99555.84
2024-03-02T01:36:54.351Z,99561.84
2024-03-02T01:37:45.818Z,99555.72
2024-03-02T01:38:38.133Z,99552.22
2024-03-02T01:39:29.591Z,99552.28
2024-03-02T01:40:21.569Z,99561.00
2024-03-02T01:41:13.588Z,99554.91
2024-03-02T01:42:05.224Z,99557.47
2024-03-02T01:42:59.650Z,99560.88
2024-03-02T01:43:51.310Z,99555.66
2024-03-02T01:44:42.817Z,99553.09
2024-03-02T01:45:36.844Z,99553.03
2024-03-02T01:46:28.488Z,99559.19
2024-03-02T01:47:20.263Z,99551.44
2024-03-02T01:48:11.742Z,99553.13
2024-03-02T01:49:03.290Z,99559.34
2024-03-02T01:49:55.062Z,99551.53
2024-03-02T01:50:46.725Z,99552.28
2024-03-02T01:51:38.273Z,99549.69
2024-03-02T01:52:30.701Z,99548.84
2024-03-02T01:53:22.369Z,99551.56
2024-03-02T01:54:13.846Z,99549.03
2024-03-02T01:55:06.092Z,99558.50
2024-03-02T01:55:57.547Z,99552.38
2024-03-02T01:56:49.055Z,99553.22
2024-03-02T01:57:40.568Z,99552.47
2024-03-02T01:58:32.040Z,99547.25
2024-03-02T01:59:23.615Z,99541.22
2024-03-02T02:00:16.111Z,99545.47
2024-03-02T02:01:07.752Z,99548.00
2024-03-02T02:01:59.392Z,99538.50
2024-03-02T02:02:51.783Z,99548.81
2024-03-02T02:03:45.181Z,99548.94
2024-03-02T02:04:36.816Z,99554.03
2024-03-02T02:05:29.104Z,99547.13
2024-03-02T02:06:20.770Z,99546.22
2024-03-02T02:07:12.538Z,99546.16
2024-03-02T02:08:04.312Z,99548.72
2024-03-02T02:08:56.569Z,99543.53
2024-03-02T02:09:48.007Z,99545.28
2024-03-02T02:10:39.588Z,99541.09
2024-03-02T02:11:31.139Z,99544.66
2024-03-02T02:12:22.887Z,99541.22
2024-03-02T02:13:14.548Z,99543.00
2024-03-02T02:14:07.462Z,99550.06
2024-03-02T02:14:59.086Z,99539.72
2024-03-02T02:15:51.442Z,99544.03
2024-03-02T02:16:43.408Z,99545.97
2024-03-02T02:17:34.905Z,99546.06
2024-03-02T02:18:26.422Z,99547.75
2024-03-02T02:19:17.938Z,99537.31
2024-03-02T02:20:09.992Z,99545.06
2024-03-02T02:21:01.421Z,99543.44
2024-03-02T02:21:53.069Z,99536.53
2024-03-02T02:23:06.424Z,99537.44
2024-03-02T02:23:57.931Z,99546.03
2024-03-02T02:24:49.466Z,99542.59
2024-03-02T02:25:41.044Z,99546.88
2024-03-02T02:26:33.330Z,99538.25
2024-03-02T02:27:24.767Z,99540.84
2024-03-02T02:28:17.193Z,99540.06
2024-03-02T02:29:08.666Z,99543.53
2024-03-02T02:30:02.183Z,99551.38
2024-03-02T02:30:57.427Z,99544.41
2024-03-02T02:31:48.952Z,99544.38
2024-03-02T02:32:41.134Z,99544.31
2024-03-02T02:33:32.563Z,99538.28
2024-03-02T02:34:24.523Z,99535.72
2024-03-02T02:35:16.159Z,99533.06
2024-03-02T02:36:07.797Z,99539.97
2024-03-02T02:36:59.558Z,99538.34
2024-03-02T02:37:54.532Z,99534.00
2024-03-02T02:38:49.985Z,99531.53
2024-03-02T02:39:41.520Z,99540.19
2024-03-02T02:40:33.949Z,99528.91
2024-03-02T02:41:25.348Z,99530.59
2024-03-02T02:42:16.811Z,99527.94
2024-03-02T02:43:09.070Z,99537.53
2024-03-02T02:44:00.502Z,99542.75
2024-03-02T02:44:52.104Z,99531.63
2024-03-02T02:45:43.955Z,99534.22
2024-03-02T02:46:35.393Z,99532.50
2024-03-02T02:47:27.350Z,99536.75
2024-03-02T02:48:19.663Z,99538.47
2024-03-02T02:49:11.463Z,99531.53
2024-03-02T02:50:08.513Z,99534.97
2024-03-02T02:51:00.024Z,99539.34
2024-03-02T02:51:53.714Z,99536.84
2024-03-02T02:52:45.518Z,99535.09
2024-03-02T02:53:41.217Z,99529.06
2024-03-02T02:54:32.709Z,99536.84
2024-03-02T02:55:24.114Z,99542.00
2024-03-02T02:56:15.521Z,99535.16
2024-03-02T02:57:07.521Z,99529.94
2024-03-02T02:57:59.035Z,99536.88
2024-03-02T02:58:50.628Z,99535.06
2024-03-02T02:59:42.249Z,99541.09
2024-03-02T03:00:34.061Z,99540.25
2024-03-02T03:01:26.828Z,99537.75
2024-03-02T03:02:19.044Z,99539.50
2024-03-02T03:03:10.556Z,99540.44
2024-03-02T03:04:02.000Z,99540.56
2024-03-02T03:04:53.566Z,99538.88
2024-03-02T03:05:45.782Z,99545.69
2024-03-02T03:06:37.794Z,99545.72
2024-03-02T03:07:29.183Z,99544.78
2024-03-02T03:08:20.626Z,99543.97
2024-03-02T03:09:12.099Z,99536.22
2024-03-02T03:10:05.247Z,99549.97
2024-03-02T03:10:56.763Z,99543.94
2024-03-02T03:11:48.204Z,99537.06
2024-03-02T03:12:41.946Z,99543.13
2024-03-02T03:13:34.986Z,99545.72
2024-03-02T03:14:26.401Z,99542.25
2024-03-02T03:15:18.257Z,99538.88
2024-03-02T03:16:09.733Z,99537.06
2024-03-02T03:17:02.017Z,99533.59
2024-03-02T03:17:54.151Z,99549.13
2024-03-02T03:18:45.732Z,99545.69
2024-03-02T03:19:39.487Z,99547.41
2024-03-02T03:20:31.773Z,99549.09
2024-03-02T03:21:24.398Z,99556.00
2024-03-02T03:22:15.892Z,99550.09
2024-03-02T03:23:07.334Z,99543.88
2024-03-02T03:23:58.788Z,99546.47
2024-03-02T03:24:50.269Z,99548.16
2024-03-02T03:25:42.946Z,99550.75
2024-03-02T03:26:37.683Z,99553.38
2024-03-02T03:27:30.185Z,99552.44
2024-03-02T03:28:21.655Z,99549.81
2024-03-02T03:29:13.082Z,99551.63
2024-03-02T03:30:04.991Z,99545.53
2024-03-02T03:30:56.563Z,99547.28
2024-03-02T03:31:47.961Z,99551.56
2024-03-02T03:32:39.894Z,99554.19
2024-03-02T03:33:31.386Z,99554.16
2024-03-02T03:34:23.740Z,99553.31
2024-03-02T03:35:19.576Z,99551.53
2024-03-02T03:36:11.073Z,99550.63
2024-03-02T03:37:03.837Z,99551.56
2024-03-02T03:37:55.255Z,99555.84
2024-03-02T03:38:46.693Z,99554.13
2024-03-02T03:39:38.365Z,99549.13
2024-03-02T03:40:30.659Z,99551.75
2024-03-02T03:41:22.125Z,99556.03
2024-03-02T03:42:13.507Z,99561.97
2024-03-02T03:43:05.119Z,99559.41
2024-03-02T03:43:56.812Z,99565.53
2024-03-02T03:44:48.321Z,99563.88
2024-03-02T03:45:39.832Z,99556.91
2024-03-02T03:46:31.325Z,99568.97
2024-03-02T03:47:22.735Z,99563.75
2024-03-02T03:48:14.348Z,99569.00
2024-03-02T03:49:06.283Z,99569.88
2024-03-02T03:49:57.657Z,99568.19
2024-03-02T03:50:49.882Z,99566.44
2024-03-02T03:51:41.400Z,99566.38
2024-03-02T03:52:32.810Z,99562.94
2024-03-02T03:53:25.252Z,99567.28
2024-03-02T03:54:16.686Z,99565.56
2024-03-02T03:55:08.640Z,99559.50
2024-03-02T03:56:00.602Z,99560.28
2024-03-02T03:56:52.237Z,99565.47
2024-03-02T03:57:43.716Z,99563.69
2024-03-02T03:58:35.153Z,99564.56
2024-03-02T03:59:26.587Z,99568.81
2024-03-02T04:00:19.041Z,99566.16
2024-03-02T04:01:10.585Z,99568.84
2024-03-02T04:02:03.584Z,99561.88
2024-03-02T04:02:54.985Z,99569.78
2024-03-02T04:03:46.514Z,99567.16
2024-03-02T04:04:38.620Z,99567.94
2024-03-02T04:05:30.025Z,99567.91
2024-03-02T04:06:21.438Z,99565.25
2024-03-02T04:07:12.948Z,99568.66
2024-03-02T04:08:05.700Z,99560.06
2024-03-02T04:08:57.144Z,99562.63
2024-03-02T04:09:48.648Z,99559.19
2024-03-02T04:10:41.306Z,99560.91
2024-03-02T04:11:32.926Z,99557.41
2024-03-02T04:12:25.076Z,99565.06
2024-03-02T04:13:16.581Z,99556.41
2024-03-02T04:14:08.013Z,99556.38
2024-03-02T04:14:59.989Z,99557.16
2024-03-02T04:15:51.610Z,99557.16
2024-03-02T04:16:43.023Z,99553.63
2024-03-02T04:17:34.931Z,99563.88
2024-03-02T04:18:26.604Z,99560.31
2024-03-02T04:19:18.813Z,99560.31
2024-03-02T04:20:10.862Z,99568.78
2024-03-02T04:21:02.286Z,99564.44
2024-03-02T04:21:53.826Z,99572.97
2024-03-02T04:22:45.332Z,99570.34
2024-03-02T04:23:36.728Z,99571.22
2024-03-02T04:24:28.213Z,99574.72
2024-03-02T04:25:20.874Z,99584.19
2024-03-02T04:26:12.268Z,99575.50
2024-03-02T04:27:03.754Z,99569.44
2024-03-02T04:27:56.091Z,99574.63
2024-03-02T04:28:47.687Z,99571.91
2024-03-02T04:29:39.134Z,99573.59
2024-03-02T04:30:30.644Z,99580.59
2024-03-02T04:31:22.953Z,99577.97
2024-03-02T04:32:14.421Z,99577.97
2024-03-02T04:33:08.434Z,99574.50
2024-03-02T04:34:00.060Z,99572.75
2024-03-02T04:34:51.518Z,99582.25
2024-03-02T04:35:42.975Z,99591.75
2024-03-02T04:36:34.482Z,99586.53
2024-03-02T04:37:25.941Z,99589.94
2024-03-02T04:38:17.380Z,99590.81
2024-03-02T04:39:10.722Z,99588.22
2024-03-02T04:40:03.074Z,99590.78
2024-03-02T04:40:54.663Z,99591.59
2024-03-02T04:41:46.192Z,99589.06
2024-03-02T04:42:37.757Z,99596.06
2024-03-02T04:43:29.206Z,99594.28
2024-03-02T04:44:20.630Z,99592.47
2024-03-02T04:45:12.230Z,99594.19
2024-03-02T04:46:03.831Z,99592.31
2024-03-02T04:46:55.275Z,99587.91
2024-03-02T04:47:49.316Z,99588.69
2024-03-02T04:48:41.704Z,99588.59
2024-03-02T04:49:33.322Z,99594.50
2024-03-02T04:50:24.834Z,99592.69
2024-03-02T04:51:16.327Z,99593.53
2024-03-02T04:52:08.629Z,99590.00
2024-03-02T04:53:00.097Z,99586.34
2024-03-02T04:53:51.662Z,99590.56
2024-03-02T04:55:01.591Z,99591.41
2024-03-02T04:56:24.803Z,99591.31
2024-03-02T04:57:16.239Z,99599.03
2024-03-02T04:58:07.888Z,99600.72
2024-03-02T04:59:00.259Z,99598.94
2024-03-02T04:59:51.822Z,99603.28
2024-03-02T05:00:44.045Z,99596.25
2024-03-02T05:01:35.747Z,99595.41
2024-03-02T05:02:28.083Z,99604.84
2024-03-02T05:03:19.503Z,99606.59
2024-03-02T05:04:14.087Z,99602.31
2024-03-02T05:05:05.831Z,99605.78
2024-03-02T05:05:57.351Z,99610.13
2024-03-02T05:06:53.793Z,99615.31
2024-03-02T05:07:46.438Z,99601.53
2024-03-02T05:08:37.959Z,99613.59
2024-03-02T05:09:29.476Z,99612.81
2024-03-02T05:10:21.057Z,99617.13
2024-03-02T05:11:47.166Z,99612.94
2024-03-02T05:12:45.106Z,99614.56
2024-03-02T05:13:38.477Z,99619.72
2024-03-02T05:14:29.925Z,99615.31
2024-03-02T05:15:22.624Z,99621.25
2024-03-02T05:16:14.109Z,99616.00
2024-03-02T05:17:05.800Z,99614.16
2024-03-02T05:17:58.235Z,99617.56
2024-03-02T05:18:49.759Z,99615.00
2024-03-02T05:19:41.139Z,99612.31
2024-03-02T05:20:32.594Z,99617.47
2024-03-02T05:21:24.064Z,99620.94
2024-03-02T05:22:15.597Z,99619.91
2024-03-02T05:23:07.097Z,99625.97
2024-03-02T05:23:58.626Z,99618.19
2024-03-02T05:24:50.255Z,99615.59
2024-03-02T05:25:41.729Z,99613.78
2024-03-02T05:26:33.206Z,99603.19
2024-03-02T05:27:24.642Z,99595.31
2024-03-02T05:28:16.146Z,99599.59
2024-03-02T05:29:08.215Z,99600.47
2024-03-02T05:30:03.255Z,99597.72
2024-03-02T05:30:54.775Z,99593.44
2024-03-02T05:31:46.249Z,99589.00
2024-03-02T05:32:38.290Z,99587.25
2024-03-02T05:33:31.929Z,99593.38
2024-03-02T05:34:23.526Z,99588.16
2024-03-02T05:35:15.016Z,99589.81
2024-03-02T05:36:07.286Z,99589.78
2024-03-02T05:36:58.979Z,99597.50
2024-03-02T05:37:50.397Z,99594.88
2024-03-02T05:38:42.003Z,99593.06
2024-03-02T05:39:33.406Z,99591.31
2024-03-02T05:40:24.833Z,99595.66
2024-03-02T05:41:16.238Z,99600.78
2024-03-02T05:42:07.658Z,99598.28
2024-03-02T05:42:59.233Z,99595.63
2024-03-02T05:43:50.684Z,99589.59
2024-03-02T05:44:42.166Z,99588.88
2024-03-02T05:45:33.599Z,99588.78
2024-03-02T05:46:25.185Z,99589.63
2024-03-02T05:47:16.679Z,99588.78
2024-03-02T05:48:08.810Z,99589.66
2024-03-02T05:49:03.447Z,99588.94
2024-03-02T05:49:54.916Z,99587.25
2024-03-02T05:50:46.387Z,99594.06
2024-03-02T05:51:37.988Z,99595.78
2024-03-02T05:52:29.467Z,99594.81
2024-03-02T05:53:20.946Z,99595.66
2024-03-02T05:54:12.523Z,99583.50
2024-03-02T05:55:04.593Z,99596.34
2024-03-02T05:55:56.871Z,99588.53
2024-03-02T05:56:48.336Z,99592.78
2024-03-02T05:57:45.496Z,99597.94
2024-03-02T05:58:55.658Z,99590.97
2024-03-02T05:59:47.102Z,99592.84
2024-03-02T06:00:38.632Z,99586.84
2024-03-02T06:01:30.603Z,99595.50
2024-03-02T06:02:22.130Z,99580.94
2024-03-02T06:03:13.646Z,99585.25
2024-03-02T06:04:05.127Z,99586.06
2024-03-02T06:04:57.149Z,99582.59
2024-03-02T06:05:50.253Z,99592.06
2024-03-02T06:06:42.030Z,99583.50
2024-03-02T06:07:34.006Z,99596.53
2024-03-02T06:08:25.531Z,99598.34
2024-03-02T06:09:17.251Z,99606.16
2024-03-02T06:10:13.643Z,99605.31
2024-03-02T06:11:05.686Z,99603.50
2024-03-02T06:11:57.180Z,99601.78
2024-03-02T06:12:48.697Z,99605.31
2024-03-02T06:13:40.187Z,99613.13
2024-03-02T06:14:31.699Z,99606.31
2024-03-02T06:15:23.163Z,99609.78
2024-03-02T06:16:14.828Z,99606.34
2024-03-02T06:17:06.336Z,99609.00
2024-03-02T06:17:57.800Z,99603.84
2024-03-02T06:18:49.302Z,99612.47
2024-03-02T06:19:41.612Z,99611.72
2024-03-02T06:20:36.578Z,99612.50
2024-03-02T06:21:28.921Z,99613.41
2024-03-02T06:22:20.477Z,99610.69
2024-03-02T06:23:11.897Z,99617.72
2024-03-02T06:24:03.508Z,99621.06
2024-03-02T06:24:55.126Z,99621.06
2024-03-02T06:25:46.635Z,99613.25
2024-03-02T06:26:38.224Z,99612.47
2024-03-02T06:27:29.669Z,99613.31
2024-03-02T06:28:21.779Z,99614.28
2024-03-02T06:29:13.157Z,99621.22
2024-03-02T06:30:05.326Z,99620.44
2024-03-02T06:30:57.063Z,99618.75
2024-03-02T06:31:50.621Z,99620.44
2024-03-02T06:32:43.273Z,99622.28
2024-03-02T06:33:34.715Z,99622.38
2024-03-02T06:34:26.181Z,99619.84
2024-03-02T06:35:17.658Z,99626.69
2024-03-02T06:36:12.844Z,99625.88
2024-03-02T06:37:04.348Z,99631.00
2024-03-02T06:37:55.854Z,99636.19
2024-03-02T06:38:47.328Z,99629.28
2024-03-02T06:39:38.965Z,99631.06
2024-03-02T06:40:30.594Z,99631.13
2024-03-02T06:41:22.032Z,99631.22
2024-03-02T06:42:13.431Z,99635.41
2024-03-02T06:43:05.314Z,99636.38
2024-03-02T06:44:00.944Z,99638.13
2024-03-02T06:44:52.617Z,99628.63
2024-03-02T06:45:44.091Z,99632.16
2024-03-02T06:46:35.515Z,99624.56
2024-03-02T06:47:26.949Z,99619.44
2024-03-02T06:48:21.126Z,99622.00
2024-03-02T06:49:12.613Z,99626.34
2024-03-02T06:50:04.432Z,99622.88
2024-03-02T06:50:56.948Z,99627.31
2024-03-02T06:51:48.442Z,99622.16
2024-03-02T06:52:40.047Z,99633.38
2024-03-02T06:53:32.624Z,99629.91
2024-03-02T06:54:24.106Z,99627.38
2024-03-02T06:55:15.560Z,99624.94
2024-03-02T06:56:09.146Z,99636.16
2024-03-02T06:57:00.673Z,99631.91
2024-03-02T06:57:53.158Z,99643.22
2024-03-02T06:58:44.596Z,99640.69
2024-03-02T06:59:35.985Z,99639.84
2024-03-02T07:00:27.534Z,99638.81
2024-03-02T07:01:18.974Z,99634.75
2024-03-02T07:02:10.422Z,99639.16
2024-03-02T07:03:01.891Z,99635.69
2024-03-02T07:03:53.406Z,99626.97
2024-03-02T07:04:46.234Z,99638.22
2024-03-02T07:05:37.781Z,99633.13
2024-03-02T07:06:29.323Z,99633.91
2024-03-02T07:07:20.887Z,99629.56
2024-03-02T07:08:12.376Z,99639.00
2024-03-02T07:09:04.012Z,99632.94
2024-03-02T07:09:55.501Z,99631.97
2024-03-02T07:10:48.013Z,99628.53
2024-03-02T07:11:39.459Z,99629.38
2024-03-02T07:12:31.071Z,99631.13
2024-03-02T07:13:22.565Z,99633.78
2024-03-02T07:14:14.039Z,99633.13
2024-03-02T07:15:06.133Z,99633.22
2024-03-02T07:16:03.504Z,99635.78
2024-03-02T07:16:55.701Z,99637.66
2024-03-02T07:17:47.326Z,99637.59
2024-03-02T07:18:42.504Z,99641.66
2024-03-02T07:19:33.990Z,99648.66
2024-03-02T07:20:25.426Z,99651.34
2024-03-02T07:21:16.903Z,99643.63
2024-03-02T07:22:12.399Z,99654.06
2024-03-02T07:23:04.210Z,99655.03
2024-03-02T07:23:55.698Z,99656.84
2024-03-02T07:24:47.389Z,99658.56
2024-03-02T07:27:29.085Z,99661.25
2024-03-02T07:28:20.585Z,99661.38
2024-03-02T07:29:11.974Z,99658.84
2024-03-02T07:30:04.477Z,99659.78
2024-03-02T07:31:02.804Z,99666.00
2024-03-02T07:31:54.732Z,99669.50
2024-03-02T07:32:47.081Z,99672.19
2024-03-02T07:33:38.672Z,99664.38
2024-03-02T07:34:30.191Z,99667.81
2024-03-02T07:35:22.903Z,99662.66
2024-03-02T07:36:14.871Z,99670.59
2024-03-02T07:37:06.898Z,99664.59
2024-03-02T07:37:58.752Z,99666.41
2024-03-02T07:38:51.586Z,99665.69
2024-03-02T07:39:43.114Z,99666.44
2024-03-02T07:40:34.717Z,99671.59
2024-03-02T07:41:26.454Z,99667.28
2024-03-02T07:42:18.401Z,99661.34
2024-03-02T07:43:09.963Z,99662.19
2024-03-02T07:44:01.461Z,99666.78
2024-03-02T07:44:52.909Z,99668.50
2024-03-02T07:45:44.562Z,99663.38
2024-03-02T07:46:36.200Z,99667.84
2024-03-02T07:47:27.822Z,99661.81
2024-03-02T07:48:19.355Z,99669.59
2024-03-02T07:49:11.104Z,99669.63
2024-03-02T07:50:02.758Z,99665.34
2024-03-02T07:50:54.191Z,99667.97
2024-03-02T07:51:46.093Z,99670.53
2024-03-02T07:52:37.565Z,99665.31
2024-03-02T07:53:29.265Z,99664.50
2024-03-02T07:54:20.818Z,99668.91
2024-03-02T07:55:12.220Z,99670.75
2024-03-02T07:56:04.215Z,99672.50
2024-03-02T07:56:55.843Z,99669.91
2024-03-02T07:57:47.693Z,99674.16
2024-03-02T07:58:39.367Z,99673.16
2024-03-02T07:59:30.837Z,99671.50
2024-03-02T08:00:23.669Z,99671.56
2024-03-02T08:01:15.273Z,99669.00
2024-03-02T08:02:08.042Z,99668.16
2024-03-02T08:03:00.141Z,99660.38
2024-03-02T08:03:51.975Z,99669.88
2024-03-02T08:04:43.679Z,99671.59
2024-03-02T08:05:35.181Z,99674.25
2024-03-02T08:06:30.487Z,99674.25
2024-03-02T08:07:22.056Z,99676.91
2024-03-02T08:08:13.525Z,99679.56
2024-03-02T08:09:10.228Z,99675.19
2024-03-02T08:10:01.922Z,99681.25
2024-03-02T08:10:53.828Z,99671.00
2024-03-02T08:11:45.298Z,99673.59
2024-03-02T08:12:37.000Z,99667.56
2024-03-02T08:13:28.514Z,99671.03
2024-03-02T08:14:19.912Z,99679.63
2024-03-02T08:15:11.321Z,99677.06
2024-03-02T08:16:04.422Z,99683.06
2024-03-02T08:16:56.049Z,99683.16
2024-03-02T08:17:50.565Z,99683.13
2024-03-02T08:18:42.903Z,99681.41
2024-03-02T08:19:34.360Z,99675.47
2024-03-02T08:20:26.009Z,99677.19
2024-03-02T08:21:17.677Z,99691.91
2024-03-02T08:22:09.555Z,99689.41
2024-03-02T08:23:01.216Z,99686.81
2024-03-02T08:23:52.955Z,99687.66
2024-03-02T08:24:44.589Z,99690.25
2024-03-02T08:25:36.209Z,99685.06
2024-03-02T08:26:30.053Z,99690.31
2024-03-02T08:27:21.552Z,99689.56
2024-03-02T08:28:13.073Z,99700.88
2024-03-02T08:29:04.626Z,99703.63
2024-03-02T08:29:56.064Z,99698.38
2024-03-02T08:30:47.533Z,99705.41
2024-03-02T08:31:41.239Z,99695.94
2024-03-02T08:32:33.586Z,99701.16
2024-03-02T08:33:25.338Z,99703.78
2024-03-02T08:34:16.946Z,99702.06
2024-03-02T08:35:08.510Z,99704.06
2024-03-02T08:36:00.566Z,99708.47
2024-03-02T08:36:52.558Z,99714.56
2024-03-02T08:37:44.704Z,99706.88
2024-03-02T08:38:36.327Z,99713.88
2024-03-02T08:39:27.884Z,99705.22
2024-03-02T08:40:19.702Z,99706.13
2024-03-02T08:41:14.033Z,99703.69
2024-03-02T08:42:05.702Z,99706.28
2024-03-02T08:42:57.604Z,99696.81
2024-03-02T08:43:49.268Z,99696.94
2024-03-02T08:44:40.753Z,99703.88
2024-03-02T08:45:32.326Z,99697.75
2024-03-02T08:46:23.854Z,99696.84
2024-03-02T08:47:15.377Z,99697.72
2024-03-02T08:48:10.113Z,99694.28
2024-03-02T08:49:01.901Z,99692.53
2024-03-02T08:49:53.671Z,99696.00
2024-03-02T08:50:45.169Z,99693.47
2024-03-02T08:51:36.643Z,99695.22
2024-03-02T08:52:28.137Z,99702.16
2024-03-02T08:53:19.890Z,99698.69
2024-03-02T08:54:11.475Z,99703.97
2024-03-02T08:55:03.106Z,99695.31
2024-03-02T08:55:57.290Z,99695.34
2024-03-02T08:56:51.460Z,99701.41
2024-03-02T08:57:43.311Z,99691.03
2024-03-02T08:58:34.866Z,99697.94
2024-03-02T08:59:28.746Z,99691.00
2024-03-02T09:00:20.774Z,99704.84
2024-03-02T09:01:12.958Z,99706.59
2024-03-02T09:02:04.918Z,99706.53
2024-03-02T09:02:56.810Z,99703.97
2024-03-02T09:03:50.215Z,99703.94
2024-03-02T09:04:41.831Z,99703.97
2024-03-02T09:05:33.255Z,99705.69
2024-03-02T09:06:24.792Z,99706.59
2024-03-02T09:07:16.327Z,99686.75
2024-03-02T09:08:07.826Z,99704.06
2024-03-02T09:08:59.226Z,99700.63
2024-03-02T09:09:50.711Z,99698.88
2024-03-02T09:10:42.224Z,99695.47
2024-03-02T09:11:33.987Z,99704.09
2024-03-02T09:12:25.496Z,99704.16
2024-03-02T09:13:16.944Z,99704.13
2024-03-02T09:14:08.544Z,99705.03
2024-03-02T09:15:02.156Z,99706.78
2024-03-02T09:15:53.782Z,99703.34
2024-03-02T09:16:45.235Z,99704.22
2024-03-02T09:17:36.826Z,99704.22
2024-03-02T09:18:28.330Z,99706.84
2024-03-02T09:19:19.872Z,99703.41
2024-03-02T09:20:11.969Z,99709.50
2024-03-02T09:21:03.615Z,99709.50
2024-03-02T09:21:56.642Z,99711.28
2024-03-02T09:22:49.772Z,99706.97
2024-03-02T09:23:41.704Z,99717.44
2024-03-02T09:24:34.282Z,99707.06
2024-03-02T09:25:26.449Z,99700.09
2024-03-02T09:26:18.000Z,99699.28
2024-03-02T09:27:09.453Z,99698.41
2024-03-02T09:28:01.020Z,99701.03
2024-03-02T09:28:52.567Z,99701.94
2024-03-02T09:29:43.979Z,99694.13
2024-03-02T09:30:35.459Z,99686.34
2024-03-02T09:31:26.988Z,99693.25
2024-03-02T09:32:18.452Z,99693.28
2024-03-02T09:34:04.198Z,99693.34
2024-03-02T09:34:56.870Z,99696.81
2024-03-02T09:35:49.715Z,99697.66
2024-03-02T09:36:41.190Z,99690.78
2024-03-02T09:37:32.756Z,99695.09
2024-03-02T09:38:24.162Z,99694.28
2024-03-02T09:39:15.577Z,99696.91
2024-03-02T09:40:07.562Z,99697.81
2024-03-02T09:41:00.344Z,99699.53
2024-03-02T09:41:52.495Z,99702.13
2024-03-02T09:42:44.821Z,99695.97
2024-03-02T09:43:36.412Z,99707.28
2024-03-02T09:44:28.898Z,99702.97
2024-03-02T09:45:25.195Z,99700.38
2024-03-02T09:46:16.846Z,99698.63
2024-03-02T09:47:08.860Z,99701.16
2024-03-02T09:48:01.143Z,99707.22
2024-03-02T09:48:52.751Z,99705.47
2024-03-02T09:49:44.736Z,99705.47
2024-03-02T09:50:36.305Z,99711.53
2024-03-02T09:51:27.772Z,99702.03
2024-03-02T09:52:19.238Z,99708.16
2024-03-02T09:53:13.201Z,99696.00
2024-03-02T09:54:12.968Z,99703.84
2024-03-02T09:55:10.361Z,99712.50
2024-03-02T09:56:02.006Z,99685.63
2024-03-02T09:56:53.527Z,99696.88
2024-03-02T09:57:46.477Z,99699.50
2024-03-02T09:58:39.708Z,99694.25
2024-03-02T09:59:31.213Z,99698.53
2024-03-02T10:00:22.650Z,99695.06
2024-03-02T10:01:14.768Z,99695.94
2024-03-02T10:02:08.075Z,99703.75
2024-03-02T10:03:01.245Z,99696.00
2024-03-02T10:03:54.235Z,99696.91
2024-03-02T10:04:46.603Z,99692.59
2024-03-02T10:05:38.079Z,99695.22
2024-03-02T10:06:30.259Z,99692.63
2024-03-02T10:07:21.711Z,99692.63
2024-03-02T10:08:13.139Z,99695.25
2024-03-02T10:09:04.521Z,99691.78
2024-03-02T10:09:56.050Z,99688.31
2024-03-02T10:10:47.789Z,99689.19
2024-03-02T10:11:40.248Z,99697.03
2024-03-02T10:12:31.794Z,99688.31
2024-03-02T10:13:26.032Z,99694.44
2024-03-02T10:14:17.584Z,99695.25
2024-03-02T10:15:10.606Z,99695.25
2024-03-02T10:16:13.067Z,99695.25
2024-03-02T10:17:07.742Z,99696.16
2024-03-02T10:17:59.367Z,99698.78
2024-03-02T10:18:50.814Z,99689.22